createdAt,value
2022-11-03T00:01:50.129Z,1.40
2022-11-03T00:04:19.105Z,2.10
2022-11-03T00:06:48.322Z,1.45
2022-11-03T00:09:16.421Z,2.10
2022-11-03T00:11:44.703Z,1.48
2022-11-03T00:14:13.127Z,1.65
2022-11-03T00:16:40.254Z,1.77
2022-11-03T00:19:09.154Z,1.30
2022-11-03T00:21:36.812Z,1.80
2022-11-03T00:24:04.925Z,1.70
2022-11-03T00:26:34.339Z,1.77
2022-11-03T00:29:06.301Z,1.80
2022-11-03T00:31:36.342Z,1.40
2022-11-03T00:34:04.128Z,1.90
2022-11-03T00:36:33.622Z,1.20
2022-11-03T00:39:00.174Z,1.35
2022-11-03T00:41:27.295Z,1.90
2022-11-03T00:43:55.482Z,1.15
2022-11-03T00:46:23.213Z,1.50
2022-11-03T00:48:51.083Z,1.60
2022-11-03T00:51:19.223Z,1.42
2022-11-03T00:53:48.160Z,1.42
2022-11-03T00:56:16.725Z,1.60
2022-11-03T00:58:44.715Z,1.17
2022-11-03T01:01:17.306Z,1.50
2022-11-03T01:04:05.841Z,1.48
2022-11-03T01:06:54.377Z,1.40
2022-11-03T01:09:29.987Z,1.40
2022-11-03T01:12:18.259Z,1.60
2022-11-03T01:14:50.825Z,1.85
2022-11-03T01:17:26.329Z,1.70
2022-11-03T01:19:54.320Z,1.40
2022-11-03T01:22:22.601Z,1.70
2022-11-03T01:24:50.036Z,1.65
2022-11-03T01:27:19.509Z,1.58
2022-11-03T01:29:46.807Z,1.52
2022-11-03T01:32:13.374Z,1.40
2022-11-03T01:34:40.460Z,1.50
2022-11-03T01:37:07.675Z,1.83
2022-11-03T01:39:34.963Z,1.60
2022-11-03T01:42:02.420Z,1.63
2022-11-03T01:44:43.914Z,1.20
2022-11-03T01:47:10.590Z,1.23
2022-11-03T01:49:50.504Z,1.50
2022-11-03T01:52:28.433Z,1.42
2022-11-03T01:55:07.624Z,1.30
2022-11-03T01:57:53.335Z,1.50
2022-11-03T02:00:19.961Z,1.30
2022-11-03T02:02:47.432Z,1.40
2022-11-03T02:05:16.503Z,1.70
2022-11-03T02:08:11.028Z,1.60
2022-11-03T02:10:38.589Z,1.65
2022-11-03T02:13:16.603Z,1.50
2022-11-03T02:15:44.087Z,1.40
2022-11-03T02:18:12.649Z,1.20
2022-11-03T02:20:40.608Z,1.70
2022-11-03T02:23:25.895Z,1.35
2022-11-03T02:25:53.954Z,1.80
2022-11-03T02:28:31.350Z,1.33
2022-11-03T02:31:07.415Z,1.77
2022-11-03T02:33:43.685Z,1.90
2022-11-03T02:36:36.024Z,1.30
2022-11-03T02:39:15.074Z,1.27
2022-11-03T02:41:43.216Z,1.70
2022-11-03T02:44:16.516Z,1.40
2022-11-03T02:46:46.851Z,1.20
2022-11-03T02:49:13.681Z,1.73
2022-11-03T02:51:40.620Z,1.65
2022-11-03T02:54:26.056Z,1.58
2022-11-03T02:57:02.076Z,1.70
2022-11-03T02:59:38.373Z,1.52
2022-11-03T03:02:11.788Z,1.30
2022-11-03T03:04:50.630Z,1.40
2022-11-03T03:07:32.734Z,1.70
2022-11-03T03:10:08.484Z,1.20
2022-11-03T03:15:06.856Z,1.50
2022-11-03T03:17:50.881Z,1.40
2022-11-03T03:20:23.458Z,1.40
2022-11-03T03:23:00.820Z,1.75
2022-11-03T03:25:27.737Z,1.15
2022-11-03T03:28:00.891Z,1.30
2022-11-03T03:30:31.166Z,1.10
2022-11-03T03:33:00.481Z,1.67
2022-11-03T03:35:33.922Z,1.52
2022-11-03T03:38:13.906Z,1.33
2022-11-03T03:40:44.697Z,1.20
2022-11-03T03:43:14.666Z,1.33
2022-11-03T03:45:44.910Z,1.58
2022-11-03T03:48:12.668Z,1.45
2022-11-03T03:50:42.508Z,1.10
2022-11-03T03:53:12.663Z,1.50
2022-11-03T03:55:42.557Z,1.30
2022-11-03T03:58:13.145Z,1.38
2022-11-03T04:00:42.785Z,1.70
2022-11-03T04:03:18.463Z,1.30
2022-11-03T04:05:46.208Z,1.52
2022-11-03T04:08:14.069Z,1.42
2022-11-03T04:10:41.137Z,1.33
2022-11-03T04:13:27.397Z,1.30
2022-11-03T04:18:57.890Z,1.02
2022-11-03T04:21:43.146Z,1.27
2022-11-03T04:24:10.150Z,1.23
2022-11-03T04:26:36.657Z,1.50
2022-11-03T04:29:07.300Z,1.20
2022-11-03T04:31:35.649Z,1.30
2022-11-03T04:34:05.130Z,1.13
2022-11-03T04:36:32.151Z,1.15
2022-11-03T04:38:59.515Z,1.30
2022-11-03T04:41:32.345Z,1.08
2022-11-03T04:43:59.474Z,1.20
2022-11-03T04:46:31.140Z,1.10
2022-11-03T04:49:02.026Z,1.10
2022-11-03T04:51:32.044Z,1.10
2022-11-03T04:54:14.457Z,1.20
2022-11-03T04:56:41.903Z,1.00
2022-11-03T04:59:13.921Z,1.05
2022-11-03T05:01:41.517Z,1.00
2022-11-03T05:04:12.600Z,0.90
2022-11-03T05:06:40.516Z,1.02
2022-11-03T05:09:16.962Z,0.95
2022-11-03T05:11:46.651Z,0.90
2022-11-03T05:14:14.934Z,0.88
2022-11-03T05:16:42.141Z,0.85
2022-11-03T05:19:19.189Z,1.00
2022-11-03T05:21:50.131Z,1.00
2022-11-03T05:24:21.592Z,1.00
2022-11-03T05:26:49.722Z,0.90
2022-11-03T05:29:20.131Z,0.90
2022-11-03T05:31:51.941Z,0.85
2022-11-03T05:34:30.888Z,1.08
2022-11-03T05:37:26.077Z,0.73
2022-11-03T05:39:57.560Z,0.77
2022-11-03T05:42:27.032Z,1.30
2022-11-03T05:44:54.195Z,1.02
2022-11-03T05:47:38.054Z,0.90
2022-11-03T05:50:28.543Z,0.93
2022-11-03T05:52:59.328Z,0.88
2022-11-03T05:55:34.931Z,1.55
2022-11-03T05:58:12.626Z,0.90
2022-11-03T06:00:48.190Z,0.90
2022-11-03T06:03:21.789Z,0.80
2022-11-03T06:05:49.213Z,1.00
2022-11-03T06:08:25.641Z,1.02
2022-11-03T06:10:55.054Z,1.00
2022-11-03T06:13:28.067Z,1.05
2022-11-03T06:16:31.570Z,0.80
2022-11-03T06:19:02.235Z,0.82
2022-11-03T06:21:29.274Z,1.00
2022-11-03T06:23:55.941Z,0.75
2022-11-03T06:26:27.657Z,0.85
2022-11-03T06:28:55.922Z,0.80
2022-11-03T06:31:30.111Z,1.00
2022-11-03T06:33:58.921Z,1.00
2022-11-03T06:36:31.051Z,1.23
2022-11-03T06:39:02.202Z,0.77
2022-11-03T06:41:32.685Z,0.95
2022-11-03T06:44:03.067Z,0.70
2022-11-03T06:46:31.548Z,0.95
2022-11-03T06:49:01.062Z,1.00
2022-11-03T06:51:29.853Z,1.08
2022-11-03T06:54:00.453Z,0.90
2022-11-03T06:56:31.678Z,0.73
2022-11-03T06:58:58.458Z,1.42
2022-11-03T07:01:30.416Z,0.90
2022-11-03T07:04:01.314Z,1.38
2022-11-03T07:06:38.054Z,0.93
2022-11-03T07:09:09.777Z,0.82
2022-11-03T07:11:49.927Z,1.30
2022-11-03T07:14:23.141Z,0.80
2022-11-03T07:17:01.382Z,0.98
2022-11-03T07:19:33.355Z,1.10
2022-11-03T07:22:02.793Z,1.02
2022-11-03T07:24:36.469Z,0.63
2022-11-03T07:27:23.555Z,0.80
2022-11-03T07:29:51.835Z,0.95
2022-11-03T07:32:29.437Z,0.95
2022-11-03T07:35:05.124Z,0.93
2022-11-03T07:37:31.872Z,0.90
2022-11-03T07:39:59.201Z,0.88
2022-11-03T07:42:28.048Z,0.70
2022-11-03T07:44:56.200Z,0.90
2022-11-03T07:47:28.112Z,0.82
2022-11-03T07:49:55.886Z,0.80
2022-11-03T07:52:25.846Z,0.82
2022-11-03T07:54:57.075Z,0.70
2022-11-03T07:57:28.454Z,1.00
2022-11-03T08:00:03.900Z,0.60
2022-11-03T08:02:37.493Z,1.02
2022-11-03T08:05:04.586Z,0.68
2022-11-03T08:07:31.864Z,0.82
2022-11-03T08:09:59.324Z,0.70
2022-11-03T08:12:26.477Z,1.00
2022-11-03T08:14:53.610Z,0.90
2022-11-03T08:17:20.671Z,0.80
2022-11-03T08:19:48.186Z,1.00
2022-11-03T08:22:15.165Z,1.17
2022-11-03T08:24:42.229Z,1.02
2022-11-03T08:27:08.914Z,1.15
2022-11-03T08:29:35.462Z,0.70
2022-11-03T08:32:02.611Z,1.17
2022-11-03T08:34:29.605Z,0.95
2022-11-03T08:36:56.133Z,1.08
2022-11-03T08:39:23.026Z,1.27
2022-11-03T08:41:49.582Z,0.80
2022-11-03T08:44:16.118Z,0.75
2022-11-03T08:46:43.227Z,1.30
2022-11-03T08:49:10.352Z,1.00
2022-11-03T08:51:43.058Z,0.85
2022-11-03T08:54:11.410Z,1.00
2022-11-03T08:56:38.049Z,1.02
2022-11-03T08:59:05.039Z,1.20
2022-11-03T09:01:31.630Z,0.90
2022-11-03T09:03:58.865Z,1.00
2022-11-03T09:06:25.507Z,0.93
2022-11-03T09:11:40.137Z,0.73
2022-11-03T09:14:07.142Z,1.00
2022-11-03T09:16:34.158Z,0.77
2022-11-03T09:19:00.697Z,0.88
2022-11-03T09:21:27.225Z,0.90
2022-11-03T09:23:54.215Z,0.73
2022-11-03T09:26:21.399Z,1.10
2022-11-03T09:28:49.612Z,0.80
2022-11-03T09:31:16.601Z,0.90
2022-11-03T09:33:43.637Z,0.90
2022-11-03T09:36:10.942Z,1.23
2022-11-03T09:38:37.956Z,0.80
2022-11-03T09:41:13.608Z,0.93
2022-11-03T09:43:52.813Z,0.68
2022-11-03T09:46:20.149Z,0.90
2022-11-03T09:48:47.321Z,0.93
2022-11-03T09:51:21.344Z,0.63
2022-11-03T09:53:48.981Z,0.80
2022-11-03T09:56:22.228Z,1.10
2022-11-03T09:58:53.998Z,1.00
2022-11-03T10:01:21.266Z,0.80
2022-11-03T10:03:47.982Z,1.10
2022-11-03T10:06:17.161Z,0.90
2022-11-03T10:08:46.731Z,1.00
2022-11-03T10:11:14.193Z,0.98
2022-11-03T10:13:45.448Z,1.08
2022-11-03T10:16:17.340Z,1.05
2022-11-03T10:18:46.035Z,0.95
2022-11-03T10:21:17.968Z,1.00
2022-11-03T10:23:44.977Z,1.10
2022-11-03T10:26:14.685Z,0.70
2022-11-03T10:28:58.202Z,1.00
2022-11-03T10:31:36.027Z,0.75
2022-11-03T10:34:04.332Z,0.95
2022-11-03T10:36:33.757Z,0.80
2022-11-03T10:39:24.068Z,0.68
2022-11-03T10:41:59.059Z,0.90
2022-11-03T10:44:29.847Z,0.90
2022-11-03T10:47:05.157Z,1.25
2022-11-03T10:49:39.221Z,0.90
2022-11-03T10:52:21.903Z,0.98
2022-11-03T10:54:50.848Z,1.15
2022-11-03T10:57:18.926Z,1.00
2022-11-03T10:59:48.922Z,1.73
2022-11-03T11:02:20.725Z,0.80
2022-11-03T11:04:49.214Z,1.00
2022-11-03T11:07:21.678Z,0.82
2022-11-03T11:09:48.822Z,1.02
2022-11-03T11:12:19.321Z,0.90
2022-11-03T11:15:45.188Z,0.75
2022-11-03T11:18:32.225Z,0.88
2022-11-03T11:21:22.071Z,0.80
2022-11-03T11:23:50.147Z,0.90
2022-11-03T11:26:31.146Z,0.73
2022-11-03T11:29:11.179Z,0.88
2022-11-03T11:31:41.639Z,0.90
2022-11-03T11:34:12.303Z,0.90
2022-11-03T11:36:41.917Z,0.88
2022-11-03T11:39:28.433Z,0.80
2022-11-03T11:42:17.460Z,0.65
2022-11-03T11:44:45.864Z,0.80
2022-11-03T11:47:33.920Z,0.93
2022-11-03T11:50:07.214Z,0.90
2022-11-03T11:52:43.369Z,0.90
2022-11-03T11:55:48.762Z,1.02
2022-11-03T11:58:50.758Z,0.70
2022-11-03T12:01:28.571Z,0.90
2022-11-03T12:04:27.092Z,2.63
2022-11-03T12:06:54.453Z,0.93
2022-11-03T12:09:24.174Z,0.75
2022-11-03T12:11:58.328Z,0.90
2022-11-03T12:14:34.746Z,0.80
2022-11-03T12:17:17.101Z,1.02
2022-11-03T12:19:52.278Z,0.70
2022-11-03T12:22:25.483Z,0.70
2022-11-03T12:25:04.156Z,0.73
2022-11-03T12:27:31.160Z,0.90
2022-11-03T12:30:05.238Z,0.70
2022-11-03T12:32:35.070Z,0.70
2022-11-03T12:35:03.662Z,0.90
2022-11-03T12:37:31.022Z,0.98
2022-11-03T12:39:57.584Z,1.25
2022-11-03T12:42:25.391Z,0.82
2022-11-03T12:44:52.632Z,0.73
2022-11-03T12:47:20.907Z,0.73
2022-11-03T12:49:48.609Z,0.80
2022-11-03T12:52:16.148Z,0.63
2022-11-03T12:54:42.911Z,0.80
2022-11-03T12:57:09.747Z,0.90
2022-11-03T12:59:37.101Z,0.60
2022-11-03T13:02:04.750Z,0.77
2022-11-03T13:04:31.888Z,0.70
2022-11-03T13:06:58.878Z,0.90
2022-11-03T13:09:25.666Z,0.90
2022-11-03T13:12:10.896Z,0.70
2022-11-03T13:14:37.500Z,0.60
2022-11-03T13:17:04.758Z,0.75
2022-11-03T13:19:31.841Z,0.80
2022-11-03T13:21:58.913Z,0.70
2022-11-03T13:24:25.732Z,0.90
2022-11-03T13:26:52.935Z,0.70
2022-11-03T13:29:20.134Z,0.63
2022-11-03T13:31:47.652Z,0.98
2022-11-03T13:34:14.806Z,0.70
2022-11-03T13:36:41.378Z,0.95
2022-11-03T13:39:08.437Z,0.90
2022-11-03T13:41:34.965Z,0.85
2022-11-03T13:44:01.531Z,0.77
2022-11-03T13:46:28.134Z,0.82
2022-11-03T13:51:42.376Z,0.70
2022-11-03T13:59:43.091Z,0.63
2022-11-03T14:04:57.591Z,0.63
2022-11-03T14:07:24.628Z,0.75
2022-11-03T14:09:51.619Z,0.70
2022-11-03T14:12:34.518Z,0.63
2022-11-03T14:15:05.037Z,0.70
2022-11-03T14:17:32.311Z,0.90
2022-11-03T14:20:04.241Z,0.60
2022-11-03T14:22:32.314Z,0.70
2022-11-03T14:24:59.956Z,0.80
2022-11-03T14:27:26.644Z,0.60
2022-11-03T14:29:54.008Z,0.68
2022-11-03T14:32:21.580Z,0.65
2022-11-03T14:34:48.713Z,0.70
2022-11-03T14:37:16.166Z,0.70
2022-11-03T14:39:43.318Z,0.60
2022-11-03T14:42:17.103Z,0.80
2022-11-03T14:44:46.681Z,0.50
2022-11-03T14:47:21.567Z,0.80
2022-11-03T14:49:48.673Z,0.80
2022-11-03T14:52:16.875Z,0.90
2022-11-03T14:54:43.901Z,0.90
2022-11-03T14:57:11.214Z,0.80
2022-11-03T14:59:38.079Z,0.80
2022-11-03T15:02:06.277Z,0.70
2022-11-03T15:04:33.592Z,0.70
2022-11-03T15:07:00.928Z,0.63
2022-11-03T15:09:27.593Z,0.88
2022-11-03T15:11:55.166Z,0.75
2022-11-03T15:14:22.205Z,0.80
2022-11-03T15:16:48.803Z,0.80
2022-11-03T15:19:15.915Z,0.82
2022-11-03T15:21:42.550Z,0.70
2022-11-03T15:26:57.279Z,1.00
2022-11-03T15:29:24.170Z,0.93
2022-11-03T15:31:51.586Z,0.70
2022-11-03T15:34:18.367Z,0.90
2022-11-03T15:36:45.205Z,0.80
2022-11-03T15:39:13.199Z,0.70
2022-11-03T15:41:39.862Z,0.70
2022-11-03T15:44:06.456Z,0.70
2022-11-03T15:46:33.031Z,1.10
2022-11-03T15:49:00.635Z,0.60
2022-11-03T15:51:27.933Z,0.88
2022-11-03T15:53:58.553Z,1.10
2022-11-03T15:56:29.333Z,0.77
2022-11-03T15:58:56.363Z,0.60
2022-11-03T16:01:23.443Z,0.80
2022-11-03T16:03:50.763Z,0.80
2022-11-03T16:06:17.380Z,1.00
2022-11-03T16:08:43.914Z,0.68
2022-11-03T16:11:10.452Z,0.80
2022-11-03T16:13:37.461Z,0.57
2022-11-03T16:16:04.846Z,0.70
2022-11-03T16:18:31.874Z,0.77
2022-11-03T16:20:58.488Z,0.65
2022-11-03T16:23:25.497Z,0.60
2022-11-03T16:25:52.110Z,0.65
2022-11-03T16:28:21.091Z,0.90
2022-11-03T16:30:53.029Z,0.75
2022-11-03T16:33:21.016Z,0.80
2022-11-03T16:35:47.622Z,1.00
2022-11-03T16:38:15.317Z,1.00
2022-11-03T16:40:42.650Z,0.50
2022-11-03T16:43:10.297Z,0.93
2022-11-03T16:45:38.345Z,0.70
2022-11-03T16:48:05.893Z,0.85
2022-11-03T16:50:32.992Z,0.63
2022-11-03T16:53:00.021Z,0.73
2022-11-03T16:55:27.075Z,0.80
2022-11-03T16:57:53.706Z,0.90
2022-11-03T17:00:21.326Z,0.73
2022-11-03T17:02:48.477Z,0.90
2022-11-03T17:05:17.647Z,0.80
2022-11-03T17:07:51.719Z,0.70
2022-11-03T17:12:47.484Z,0.63
2022-11-03T17:15:14.655Z,0.60
2022-11-03T17:17:41.714Z,0.60
2022-11-03T17:20:09.313Z,0.82
2022-11-03T17:22:36.623Z,0.70
2022-11-03T17:25:05.440Z,0.80
2022-11-03T17:27:35.747Z,0.90
2022-11-03T17:30:07.310Z,1.08
2022-11-03T17:32:39.373Z,1.40
2022-11-03T17:35:39.306Z,1.38
2022-11-03T17:38:13.591Z,1.27
2022-11-03T17:40:42.427Z,1.15
2022-11-03T17:43:19.088Z,1.30
2022-11-03T17:45:45.662Z,2.00
2022-11-03T17:48:12.725Z,1.20
2022-11-03T17:50:43.286Z,1.23
2022-11-03T17:53:20.756Z,1.60
2022-11-03T17:56:02.889Z,1.20
2022-11-03T17:58:36.017Z,1.70
2022-11-03T18:01:03.452Z,1.85
2022-11-03T18:03:30.974Z,1.67
2022-11-03T18:05:57.775Z,1.10
2022-11-03T18:08:24.302Z,1.30
2022-11-03T18:10:53.212Z,1.25
2022-11-03T18:13:34.443Z,1.38
2022-11-03T18:16:12.507Z,1.20
2022-11-03T18:18:42.939Z,1.30
2022-11-03T18:21:22.020Z,1.33
2022-11-03T18:23:49.213Z,1.23
2022-11-03T18:26:21.000Z,0.98
2022-11-03T18:28:49.287Z,1.27
2022-11-03T18:31:22.412Z,1.50
2022-11-03T18:33:50.272Z,1.38
2022-11-03T18:36:17.799Z,1.55
2022-11-03T18:38:45.339Z,1.38
2022-11-03T18:41:35.028Z,1.23
2022-11-03T18:44:19.447Z,1.20
2022-11-03T18:46:47.617Z,1.13
2022-11-03T18:49:15.404Z,1.20
2022-11-03T18:51:49.821Z,1.17
2022-11-03T18:56:52.901Z,1.10
2022-11-03T18:59:31.920Z,0.95
2022-11-03T19:01:59.235Z,1.40
2022-11-03T19:04:25.941Z,1.00
2022-11-03T19:06:53.143Z,1.10
2022-11-03T19:09:27.720Z,1.15
2022-11-03T19:11:57.513Z,1.10
2022-11-03T19:14:35.435Z,1.27
2022-11-03T19:17:24.332Z,1.40
2022-11-03T19:19:53.434Z,1.27
2022-11-03T19:22:22.132Z,1.42
2022-11-03T19:24:48.967Z,1.23
2022-11-03T19:27:22.619Z,1.20
2022-11-03T19:29:49.359Z,0.82
2022-11-03T19:32:23.161Z,1.02
2022-11-03T19:34:56.315Z,0.90
2022-11-03T19:37:22.915Z,1.20
2022-11-03T19:39:49.508Z,1.05
2022-11-03T19:42:27.589Z,1.08
2022-11-03T19:45:02.111Z,1.17
2022-11-03T19:47:39.817Z,1.27
2022-11-03T19:50:17.441Z,0.98
2022-11-03T19:52:45.299Z,0.90
2022-11-03T19:55:14.005Z,1.00
2022-11-03T19:57:40.609Z,1.00
2022-11-03T20:00:19.962Z,1.20
2022-11-03T20:02:47.314Z,0.80
2022-11-03T20:05:15.173Z,1.00
2022-11-03T20:07:43.745Z,1.08
2022-11-03T20:10:19.426Z,0.93
2022-11-03T20:12:46.477Z,1.00
2022-11-03T20:15:21.371Z,1.00
2022-11-03T20:17:49.856Z,1.20
2022-11-03T20:20:22.748Z,0.88
2022-11-03T20:23:00.710Z,1.00
2022-11-03T20:25:33.969Z,1.00
2022-11-03T20:28:08.485Z,0.95
2022-11-03T20:30:35.713Z,0.70
2022-11-03T20:33:02.761Z,0.80
2022-11-03T20:35:29.887Z,0.80
2022-11-03T20:37:59.805Z,1.00
2022-11-03T20:40:30.295Z,0.90
2022-11-03T20:43:00.488Z,1.00
2022-11-03T20:45:31.720Z,0.82
2022-11-03T20:48:12.017Z,1.10
2022-11-03T20:50:47.322Z,0.90
2022-11-03T20:53:45.278Z,0.93
2022-11-03T20:56:47.494Z,0.90
2022-11-03T20:59:17.274Z,1.02
2022-11-03T21:01:44.888Z,0.90
2022-11-03T21:04:18.885Z,0.88
2022-11-03T21:07:05.845Z,0.98
2022-11-03T21:09:38.659Z,0.60
2022-11-03T21:12:06.189Z,0.93
2022-11-03T21:14:52.765Z,0.75
2022-11-03T21:17:38.027Z,0.90
2022-11-03T21:20:11.709Z,0.98
2022-11-03T21:22:52.550Z,0.90
2022-11-03T21:25:24.891Z,0.90
2022-11-03T21:27:59.377Z,0.85
2022-11-03T21:30:40.537Z,1.05
2022-11-03T21:33:36.590Z,0.93
2022-11-03T21:36:05.783Z,0.50
2022-11-03T21:38:38.591Z,1.35
2022-11-03T21:41:26.561Z,0.70
2022-11-03T21:44:11.898Z,0.82
2022-11-03T21:46:39.552Z,0.73
2022-11-03T21:49:24.813Z,0.80
2022-11-03T21:51:51.440Z,0.70
2022-11-03T21:54:18.538Z,0.75
2022-11-03T21:56:45.570Z,0.80
2022-11-03T21:59:12.679Z,0.80
2022-11-03T22:01:54.425Z,0.80
2022-11-03T22:04:36.818Z,0.70
2022-11-03T22:07:06.631Z,0.80
2022-11-03T22:09:33.935Z,0.80
2022-11-03T22:12:17.316Z,0.73
2022-11-03T22:15:02.547Z,0.85
2022-11-03T22:17:37.205Z,0.68
2022-11-03T22:20:22.383Z,0.70
2022-11-03T22:23:08.995Z,0.70
2022-11-03T22:25:54.205Z,0.68
2022-11-03T22:28:21.402Z,0.60
2022-11-03T22:31:06.525Z,0.68
2022-11-03T22:33:53.062Z,0.50
2022-11-03T22:36:26.425Z,0.50
2022-11-03T22:39:11.623Z,0.60
2022-11-03T22:41:59.587Z,0.60
2022-11-03T22:44:47.231Z,0.52
2022-11-03T22:47:17.447Z,0.40
2022-11-03T22:49:45.698Z,0.40
2022-11-03T22:52:12.776Z,0.50
2022-11-03T22:54:39.835Z,0.40
2022-11-03T22:57:07.729Z,0.73
2022-11-03T22:59:34.389Z,0.40
2022-11-03T23:02:00.967Z,0.43
2022-11-03T23:04:30.160Z,0.30
2022-11-03T23:06:56.824Z,0.40
2022-11-03T23:09:23.918Z,0.50
2022-11-03T23:11:50.953Z,0.50
2022-11-03T23:14:17.557Z,0.35
2022-11-03T23:16:45.653Z,0.38
2022-11-03T23:19:33.489Z,0.45
2022-11-03T23:22:01.047Z,0.40
2022-11-03T23:24:46.401Z,0.40
2022-11-03T23:27:13.618Z,0.40
2022-11-03T23:29:40.442Z,0.55
2022-11-03T23:32:07.221Z,0.40
2022-11-03T23:34:35.256Z,0.35
2022-11-03T23:37:03.245Z,0.43
2022-11-03T23:39:29.896Z,0.60
2022-11-03T23:41:56.705Z,0.40
2022-11-03T23:44:46.082Z,0.30
2022-11-03T23:47:31.862Z,0.45
2022-11-03T23:49:58.792Z,0.50
2022-11-03T23:52:25.817Z,0.40
2022-11-03T23:54:52.341Z,0.38
2022-11-03T23:57:37.597Z,0.40
